Terminal Aerodrome Forecast
Issued by NWS

Home | Current Version | Previous Version | Text Only | Print | Product List | Glossary On
Versions: 1 2 3 4 5 6 7 8 9 10 11 12 13
000
FTUS46 KSEW 281120
TAFCLM
TAF
KCLM 281120Z 2812/2912 28004KT P6SM -RA BKN040 OVC060
      TEMPO 2814/2818 5SM -RA BR BKN025 OVC040
     FM282000 32004KT P6SM SCT040 BKN060
     FM290100 VRB03KT P6SM SCT060 BKN120=

USA.gov is the U.S. government's official web portal to all federal, state and local government web resources and services.